createdAt,value
2023-02-19T00:00:27.433Z,419.00
2023-02-19T00:01:27.427Z,418.00
2023-02-19T00:02:27.412Z,419.00
2023-02-19T00:03:27.421Z,419.00
2023-02-19T00:04:27.390Z,420.00
2023-02-19T00:05:27.370Z,421.00
2023-02-19T00:06:27.340Z,420.00
2023-02-19T00:07:27.295Z,416.00
2023-02-19T00:08:27.288Z,417.00
2023-02-19T00:09:27.253Z,417.00
2023-02-19T00:10:27.240Z,418.00
2023-02-19T00:11:27.238Z,417.00
2023-02-19T00:12:27.228Z,417.00
2023-02-19T00:13:27.162Z,416.00
2023-02-19T00:14:27.150Z,414.00
2023-02-19T00:15:27.122Z,412.00
2023-02-19T00:16:27.142Z,411.00
2023-02-19T00:17:27.125Z,410.00
2023-02-19T00:18:27.065Z,410.00
2023-02-19T00:19:27.080Z,408.00
2023-02-19T00:20:27.052Z,408.00
2023-02-19T00:21:27.067Z,407.00
2023-02-19T00:22:27.020Z,409.00
2023-02-19T00:23:26.995Z,408.00
2023-02-19T00:24:26.958Z,410.00
2023-02-19T00:25:26.954Z,412.00
2023-02-19T00:26:26.954Z,411.00
2023-02-19T00:27:26.941Z,414.00
2023-02-19T00:28:26.921Z,413.00
2023-02-19T00:29:26.902Z,413.00
2023-02-19T00:30:26.980Z,415.00
2023-02-19T00:31:27.085Z,414.00
2023-02-19T00:32:26.893Z,415.00
2023-02-19T00:33:26.886Z,416.00
2023-02-19T00:34:26.852Z,415.00
2023-02-19T00:35:26.825Z,415.00
2023-02-19T00:36:26.830Z,413.00
2023-02-19T00:37:26.779Z,411.00
2023-02-19T00:38:26.775Z,411.00
2023-02-19T00:39:26.737Z,411.00
2023-02-19T00:40:26.749Z,410.00
2023-02-19T00:41:26.810Z,411.00
2023-02-19T00:42:26.710Z,412.00
2023-02-19T00:43:26.687Z,415.00
2023-02-19T00:44:26.678Z,416.00
2023-02-19T00:45:26.643Z,415.00
2023-02-19T00:46:26.700Z,416.00
2023-02-19T00:47:26.637Z,417.00
2023-02-19T00:48:26.622Z,418.00
2023-02-19T00:49:26.577Z,421.00
2023-02-19T00:50:26.579Z,421.00
2023-02-19T00:51:26.540Z,420.00
2023-02-19T00:52:26.545Z,420.00
2023-02-19T00:53:26.504Z,420.00
2023-02-19T00:54:26.524Z,417.00
2023-02-19T00:55:26.474Z,417.00
2023-02-19T00:56:26.502Z,418.00
2023-02-19T00:57:26.480Z,414.00
2023-02-19T00:58:26.428Z,412.00
2023-02-19T00:59:26.413Z,413.00
2023-02-19T01:00:26.377Z,414.00
2023-02-19T01:01:26.392Z,412.00
2023-02-19T01:02:26.390Z,414.00
2023-02-19T01:03:26.353Z,414.00
2023-02-19T01:04:26.369Z,415.00
2023-02-19T01:05:26.290Z,417.00
2023-02-19T01:06:26.289Z,416.00
2023-02-19T01:07:26.284Z,416.00
2023-02-19T01:08:26.265Z,418.00
2023-02-19T01:09:26.235Z,416.00
2023-02-19T01:10:26.264Z,416.00
2023-02-19T01:11:26.228Z,416.00
2023-02-19T01:12:26.203Z,416.00
2023-02-19T01:13:26.203Z,417.00
2023-02-19T01:14:26.155Z,418.00
2023-02-19T01:15:26.118Z,418.00
2023-02-19T01:16:26.252Z,418.00
2023-02-19T01:17:26.116Z,419.00
2023-02-19T01:18:26.071Z,417.00
2023-02-19T01:19:26.098Z,416.00
2023-02-19T01:20:26.083Z,419.00
2023-02-19T01:21:26.066Z,420.00
2023-02-19T01:22:26.075Z,420.00
2023-02-19T01:23:26.044Z,421.00
2023-02-19T01:24:26.026Z,420.00
2023-02-19T01:25:26.000Z,422.00
2023-02-19T01:26:26.007Z,419.00
2023-02-19T01:27:25.987Z,420.00
2023-02-19T01:28:25.955Z,419.00
2023-02-19T01:29:25.929Z,418.00
2023-02-19T01:30:25.998Z,417.00
2023-02-19T01:31:26.021Z,418.00
2023-02-19T01:32:25.919Z,420.00
2023-02-19T01:33:25.890Z,418.00
2023-02-19T01:34:25.893Z,418.00
2023-02-19T01:35:25.842Z,419.00
2023-02-19T01:36:25.852Z,417.00
2023-02-19T01:37:25.821Z,417.00
2023-02-19T01:38:25.826Z,419.00
2023-02-19T01:39:25.788Z,418.00
2023-02-19T01:40:25.788Z,419.00
2023-02-19T01:41:25.785Z,419.00
2023-02-19T01:42:25.757Z,418.00
2023-02-19T01:43:25.777Z,414.00
2023-02-19T01:44:25.749Z,413.00
2023-02-19T01:45:25.697Z,414.00
2023-02-19T01:46:25.744Z,414.00
2023-02-19T01:47:25.693Z,411.00
2023-02-19T01:48:25.657Z,411.00
2023-02-19T01:49:25.619Z,411.00
2023-02-19T01:50:25.629Z,410.00
2023-02-19T01:51:25.598Z,409.00
2023-02-19T01:52:25.599Z,410.00
2023-02-19T01:53:25.636Z,410.00
2023-02-19T01:54:25.577Z,410.00
2023-02-19T01:55:25.627Z,410.00
2023-02-19T01:56:25.534Z,411.00
2023-02-19T01:57:25.544Z,411.00
2023-02-19T01:58:25.556Z,415.00
2023-02-19T01:59:25.524Z,417.00
2023-02-19T02:00:25.565Z,417.00
2023-02-19T02:01:25.491Z,418.00
2023-02-19T02:02:25.464Z,415.00
2023-02-19T02:03:25.467Z,414.00
2023-02-19T02:04:25.465Z,414.00
2023-02-19T02:05:25.426Z,415.00
2023-02-19T02:06:25.426Z,414.00
2023-02-19T02:07:25.404Z,414.00
2023-02-19T02:08:25.405Z,415.00
2023-02-19T02:09:25.355Z,417.00
2023-02-19T02:10:25.358Z,417.00
2023-02-19T02:11:25.338Z,417.00
2023-02-19T02:12:25.330Z,417.00
2023-02-19T02:13:25.340Z,419.00
2023-02-19T02:14:25.306Z,419.00
2023-02-19T02:15:25.316Z,420.00
2023-02-19T02:16:25.310Z,418.00
2023-02-19T02:17:25.291Z,416.00
2023-02-19T02:18:25.290Z,413.00
2023-02-19T02:19:25.256Z,413.00
2023-02-19T02:20:25.225Z,416.00
2023-02-19T02:21:25.219Z,420.00
2023-02-19T02:22:25.189Z,420.00
2023-02-19T02:23:25.208Z,419.00
2023-02-19T02:24:25.164Z,418.00
2023-02-19T02:25:25.172Z,419.00
2023-02-19T02:26:25.123Z,422.00
2023-02-19T02:27:25.135Z,423.00
2023-02-19T02:28:25.119Z,423.00
2023-02-19T02:29:25.162Z,423.00
2023-02-19T02:30:25.080Z,423.00
2023-02-19T02:31:25.135Z,419.00
2023-02-19T02:32:25.051Z,419.00
2023-02-19T02:33:25.024Z,419.00
2023-02-19T02:34:25.015Z,420.00
2023-02-19T02:35:25.011Z,419.00
2023-02-19T02:36:24.961Z,419.00
2023-02-19T02:37:24.966Z,420.00
2023-02-19T02:38:24.942Z,420.00
2023-02-19T02:39:24.934Z,422.00
2023-02-19T02:40:24.909Z,422.00
2023-02-19T02:41:24.903Z,422.00
2023-02-19T02:42:24.898Z,420.00
2023-02-19T02:43:24.901Z,421.00
2023-02-19T02:44:24.881Z,421.00
2023-02-19T02:45:24.910Z,421.00
2023-02-19T02:46:24.861Z,422.00
2023-02-19T02:47:24.854Z,422.00
2023-02-19T02:48:24.830Z,423.00
2023-02-19T02:49:24.834Z,424.00
2023-02-19T02:50:24.810Z,422.00
2023-02-19T02:51:24.815Z,425.00
2023-02-19T02:52:24.812Z,425.00
2023-02-19T02:53:24.783Z,424.00
2023-02-19T02:54:24.789Z,425.00
2023-02-19T02:55:24.786Z,429.00
2023-02-19T02:56:24.788Z,428.00
2023-02-19T02:57:24.753Z,427.00
2023-02-19T02:58:24.761Z,426.00
2023-02-19T02:59:24.727Z,426.00
2023-02-19T03:00:24.722Z,425.00
2023-02-19T03:01:24.733Z,425.00
2023-02-19T03:02:25.380Z,428.00
2023-02-19T03:03:24.726Z,428.00
2023-02-19T03:04:24.688Z,427.00
2023-02-19T03:05:24.702Z,429.00
2023-02-19T03:06:24.711Z,430.00
2023-02-19T03:07:24.668Z,431.00
2023-02-19T03:08:24.676Z,431.00
2023-02-19T03:09:24.678Z,430.00
2023-02-19T03:10:24.680Z,430.00
2023-02-19T03:11:24.661Z,429.00
2023-02-19T03:12:24.646Z,428.00
2023-02-19T03:13:24.653Z,427.00
2023-02-19T03:14:24.655Z,427.00
2023-02-19T03:15:24.643Z,426.00
2023-02-19T03:16:24.710Z,427.00
2023-02-19T03:17:24.613Z,426.00
2023-02-19T03:18:24.617Z,427.00
2023-02-19T03:19:24.622Z,429.00
2023-02-19T03:20:24.600Z,431.00
2023-02-19T03:21:24.579Z,434.00
2023-02-19T03:22:24.586Z,432.00
2023-02-19T03:23:24.561Z,432.00
2023-02-19T03:24:24.548Z,433.00
2023-02-19T03:25:24.558Z,431.00
2023-02-19T03:26:24.534Z,430.00
2023-02-19T03:27:24.535Z,431.00
2023-02-19T03:28:24.548Z,429.00
2023-02-19T03:29:24.513Z,429.00
2023-02-19T03:30:24.541Z,429.00
2023-02-19T03:31:24.629Z,429.00
2023-02-19T03:32:24.492Z,429.00
2023-02-19T03:33:24.481Z,430.00
2023-02-19T03:34:26.148Z,429.00
2023-02-19T03:35:24.475Z,428.00
2023-02-19T03:36:24.470Z,425.00
2023-02-19T03:37:24.470Z,421.00
2023-02-19T03:38:24.449Z,420.00
2023-02-19T03:39:24.448Z,425.00
2023-02-19T03:40:24.447Z,426.00
2023-02-19T03:41:24.451Z,426.00
2023-02-19T03:42:24.429Z,428.00
2023-02-19T03:43:24.461Z,426.00
2023-02-19T03:44:24.451Z,427.00
2023-02-19T03:45:24.467Z,426.00
2023-02-19T03:46:24.418Z,429.00
2023-02-19T03:47:24.434Z,429.00
2023-02-19T03:48:24.436Z,426.00
2023-02-19T03:49:24.419Z,426.00
2023-02-19T03:50:24.449Z,425.00
2023-02-19T03:51:24.410Z,427.00
2023-02-19T03:52:24.406Z,427.00
2023-02-19T03:53:24.433Z,427.00
2023-02-19T03:54:24.416Z,425.00
2023-02-19T03:55:24.461Z,426.00
2023-02-19T03:56:24.406Z,428.00
2023-02-19T03:57:24.425Z,429.00
2023-02-19T03:58:24.389Z,433.00
2023-02-19T03:59:24.392Z,430.00
2023-02-19T04:00:24.406Z,426.00
2023-02-19T04:01:24.397Z,427.00
2023-02-19T04:02:24.429Z,429.00
2023-02-19T04:03:24.392Z,432.00
2023-02-19T04:04:24.407Z,432.00
2023-02-19T04:05:24.375Z,430.00
2023-02-19T04:06:24.373Z,430.00
2023-02-19T04:07:24.349Z,428.00
2023-02-19T04:08:24.342Z,427.00
2023-02-19T04:09:24.319Z,426.00
2023-02-19T04:10:24.339Z,426.00
2023-02-19T04:11:24.345Z,428.00
2023-02-19T04:12:24.342Z,429.00
2023-02-19T04:13:24.313Z,429.00
2023-02-19T04:14:24.321Z,425.00
2023-02-19T04:15:24.344Z,423.00
2023-02-19T04:16:24.331Z,423.00
2023-02-19T04:17:24.315Z,423.00
2023-02-19T04:18:24.289Z,423.00
2023-02-19T04:19:24.315Z,425.00
2023-02-19T04:20:24.306Z,424.00
2023-02-19T04:21:24.325Z,425.00
2023-02-19T04:22:24.305Z,424.00
2023-02-19T04:23:24.312Z,423.00
2023-02-19T04:24:24.295Z,423.00
2023-02-19T04:25:24.276Z,426.00
2023-02-19T04:26:24.283Z,427.00
2023-02-19T04:27:24.274Z,429.00
2023-02-19T04:28:24.300Z,429.00
2023-02-19T04:29:24.252Z,428.00
2023-02-19T04:30:24.361Z,431.00
2023-02-19T04:31:24.377Z,431.00
2023-02-19T04:32:24.258Z,429.00
2023-02-19T04:33:24.273Z,429.00
2023-02-19T04:34:24.251Z,429.00
2023-02-19T04:35:24.265Z,428.00
2023-02-19T04:36:24.269Z,426.00
2023-02-19T04:37:24.250Z,426.00
2023-02-19T04:38:24.254Z,425.00
2023-02-19T04:39:24.247Z,427.00
2023-02-19T04:40:24.264Z,429.00
2023-02-19T04:41:24.270Z,429.00
2023-02-19T04:42:24.236Z,427.00
2023-02-19T04:43:24.233Z,429.00
2023-02-19T04:44:24.241Z,428.00
2023-02-19T04:45:24.266Z,427.00
2023-02-19T04:46:24.293Z,427.00
2023-02-19T04:47:24.258Z,425.00
2023-02-19T04:48:24.235Z,427.00
2023-02-19T04:49:24.219Z,429.00
2023-02-19T04:50:24.239Z,431.00
2023-02-19T04:51:24.256Z,429.00
2023-02-19T04:52:24.219Z,427.00
2023-02-19T04:53:24.192Z,426.00
2023-02-19T04:54:24.197Z,426.00
2023-02-19T04:55:24.206Z,426.00
2023-02-19T04:56:24.230Z,426.00
2023-02-19T04:57:24.222Z,427.00
2023-02-19T04:58:24.242Z,427.00
2023-02-19T04:59:24.232Z,430.00
2023-02-19T05:00:24.187Z,428.00
2023-02-19T05:01:24.233Z,430.00
2023-02-19T05:02:24.235Z,428.00
2023-02-19T05:03:24.209Z,428.00
2023-02-19T05:04:24.324Z,427.00
2023-02-19T05:05:24.209Z,427.00
2023-02-19T05:06:24.220Z,429.00
2023-02-19T05:07:24.220Z,432.00
2023-02-19T05:08:24.205Z,432.00
2023-02-19T05:09:24.223Z,432.00
2023-02-19T05:10:24.195Z,434.00
2023-02-19T05:11:24.204Z,434.00
2023-02-19T05:12:24.212Z,431.00
2023-02-19T05:13:24.205Z,430.00
2023-02-19T05:14:24.233Z,428.00
2023-02-19T05:15:24.196Z,426.00
2023-02-19T05:16:24.202Z,426.00
2023-02-19T05:17:24.214Z,424.00
2023-02-19T05:18:24.202Z,425.00
2023-02-19T05:19:24.215Z,426.00
2023-02-19T05:20:24.200Z,427.00
2023-02-19T05:21:24.181Z,428.00
2023-02-19T05:22:24.197Z,429.00
2023-02-19T05:23:24.197Z,429.00
2023-02-19T05:24:24.208Z,428.00
2023-02-19T05:25:24.171Z,429.00
2023-02-19T05:26:24.207Z,428.00
2023-02-19T05:27:24.192Z,429.00
2023-02-19T05:28:24.190Z,429.00
2023-02-19T05:29:24.164Z,430.00
2023-02-19T05:30:24.183Z,429.00
2023-02-19T05:31:24.302Z,428.00
2023-02-19T05:32:24.181Z,428.00
2023-02-19T05:33:24.163Z,429.00
2023-02-19T05:34:24.168Z,427.00
2023-02-19T05:35:24.176Z,426.00
2023-02-19T05:36:24.168Z,426.00
2023-02-19T05:37:24.178Z,427.00
2023-02-19T05:38:24.153Z,427.00
2023-02-19T05:39:24.145Z,433.00
2023-02-19T05:40:24.155Z,434.00
2023-02-19T05:41:24.161Z,435.00
2023-02-19T05:42:24.156Z,435.00
2023-02-19T05:43:24.137Z,436.00
2023-02-19T05:44:24.142Z,437.00
2023-02-19T05:45:24.155Z,437.00
2023-02-19T05:46:24.204Z,436.00
2023-02-19T05:47:24.167Z,435.00
2023-02-19T05:48:24.128Z,435.00
2023-02-19T05:49:24.143Z,434.00
2023-02-19T05:50:24.129Z,436.00
2023-02-19T05:51:24.119Z,436.00
2023-02-19T05:52:24.155Z,437.00
2023-02-19T05:53:24.173Z,437.00
2023-02-19T05:54:24.114Z,436.00
2023-02-19T05:55:24.111Z,435.00
2023-02-19T05:56:24.138Z,433.00
2023-02-19T05:57:24.128Z,432.00
2023-02-19T05:58:24.139Z,432.00
2023-02-19T05:59:24.184Z,432.00
2023-02-19T06:00:24.140Z,433.00
2023-02-19T06:01:24.158Z,433.00
2023-02-19T06:02:24.214Z,430.00
2023-02-19T06:03:24.216Z,433.00
2023-02-19T06:04:24.147Z,434.00
2023-02-19T06:05:24.158Z,435.00
2023-02-19T06:06:24.150Z,436.00
2023-02-19T06:07:24.158Z,437.00
2023-02-19T06:08:24.159Z,433.00
2023-02-19T06:09:24.154Z,433.00
2023-02-19T06:10:24.168Z,431.00
2023-02-19T06:11:24.165Z,430.00
2023-02-19T06:12:24.178Z,431.00
2023-02-19T06:13:24.209Z,430.00
2023-02-19T06:14:24.175Z,433.00
2023-02-19T06:15:24.202Z,432.00
2023-02-19T06:16:24.379Z,433.00
2023-02-19T06:17:24.172Z,432.00
2023-02-19T06:18:24.228Z,430.00
2023-02-19T06:19:24.198Z,426.00
2023-02-19T06:20:26.060Z,427.00
2023-02-19T06:21:24.184Z,426.00
2023-02-19T06:22:24.202Z,427.00
2023-02-19T06:23:24.172Z,429.00
2023-02-19T06:24:24.194Z,428.00
2023-02-19T06:25:24.179Z,426.00
2023-02-19T06:26:24.193Z,424.00
2023-02-19T06:27:24.177Z,424.00
2023-02-19T06:28:24.208Z,425.00
2023-02-19T06:29:24.206Z,425.00
2023-02-19T06:30:24.324Z,422.00
2023-02-19T06:31:24.341Z,423.00
2023-02-19T06:32:24.453Z,427.00
2023-02-19T06:33:24.217Z,427.00
2023-02-19T06:34:24.179Z,427.00
2023-02-19T06:35:24.177Z,427.00
2023-02-19T06:36:24.186Z,427.00
2023-02-19T06:37:24.218Z,427.00
2023-02-19T06:38:24.206Z,426.00
2023-02-19T06:39:24.206Z,427.00
2023-02-19T06:40:24.227Z,426.00
2023-02-19T06:41:24.188Z,425.00
2023-02-19T06:42:24.194Z,427.00
2023-02-19T06:43:24.241Z,429.00
2023-02-19T06:44:24.215Z,430.00
2023-02-19T06:45:24.172Z,429.00
2023-02-19T06:46:24.313Z,427.00
2023-02-19T06:47:25.493Z,429.00
2023-02-19T06:48:24.197Z,431.00
2023-02-19T06:49:24.176Z,431.00
2023-02-19T06:50:24.177Z,432.00
2023-02-19T06:51:24.179Z,432.00
2023-02-19T06:52:24.185Z,432.00
2023-02-19T06:53:24.188Z,428.00
2023-02-19T06:54:24.162Z,429.00
2023-02-19T06:55:24.158Z,429.00
2023-02-19T06:56:24.163Z,430.00
2023-02-19T06:57:24.149Z,429.00
2023-02-19T06:58:24.170Z,429.00
2023-02-19T06:59:24.160Z,429.00
2023-02-19T07:00:24.144Z,427.00
2023-02-19T07:01:24.169Z,426.00
2023-02-19T07:02:24.137Z,426.00
2023-02-19T07:03:24.159Z,429.00
2023-02-19T07:04:24.238Z,429.00
2023-02-19T07:05:24.144Z,430.00
2023-02-19T07:06:24.155Z,431.00
2023-02-19T07:07:24.125Z,430.00
2023-02-19T07:08:24.148Z,430.00
2023-02-19T07:09:24.155Z,431.00
2023-02-19T07:10:24.143Z,432.00
2023-02-19T07:11:24.159Z,433.00
2023-02-19T07:12:24.161Z,433.00
2023-02-19T07:13:24.134Z,433.00
2023-02-19T07:14:24.144Z,433.00
2023-02-19T07:15:24.128Z,433.00
2023-02-19T07:16:24.142Z,432.00
2023-02-19T07:17:24.164Z,430.00
2023-02-19T07:18:24.164Z,428.00
2023-02-19T07:19:24.170Z,429.00
2023-02-19T07:20:24.183Z,432.00
2023-02-19T07:21:24.149Z,432.00
2023-02-19T07:22:24.178Z,430.00
2023-02-19T07:23:24.163Z,427.00
2023-02-19T07:24:24.175Z,427.00
2023-02-19T07:25:24.166Z,425.00
2023-02-19T07:26:24.178Z,423.00
2023-02-19T07:27:24.184Z,426.00
2023-02-19T07:28:24.164Z,428.00
2023-02-19T07:29:24.167Z,426.00
2023-02-19T07:30:24.230Z,426.00
2023-02-19T07:31:24.340Z,429.00
2023-02-19T07:32:24.190Z,432.00
2023-02-19T07:33:24.171Z,431.00
2023-02-19T07:34:24.208Z,432.00
2023-02-19T07:35:24.182Z,431.00
2023-02-19T07:36:24.178Z,432.00
2023-02-19T07:37:24.194Z,432.00
2023-02-19T07:38:24.233Z,430.00
2023-02-19T07:39:24.257Z,430.00
2023-02-19T07:40:24.250Z,430.00
2023-02-19T07:41:24.240Z,430.00
2023-02-19T07:42:24.235Z,429.00
2023-02-19T07:43:24.353Z,430.00
2023-02-19T07:44:24.224Z,431.00
2023-02-19T07:45:24.322Z,434.00
2023-02-19T07:46:24.225Z,433.00
2023-02-19T07:47:24.274Z,434.00
2023-02-19T07:48:24.248Z,432.00
2023-02-19T07:49:24.248Z,431.00
2023-02-19T07:50:24.277Z,430.00
2023-02-19T07:51:24.270Z,431.00
2023-02-19T07:52:24.288Z,430.00
2023-02-19T07:53:24.294Z,431.00
2023-02-19T07:54:24.272Z,432.00
2023-02-19T07:55:24.304Z,430.00
2023-02-19T07:56:24.291Z,429.00
2023-02-19T07:57:24.292Z,428.00
2023-02-19T07:58:24.296Z,430.00
2023-02-19T07:59:24.337Z,431.00
2023-02-19T08:00:24.302Z,433.00
2023-02-19T08:01:24.352Z,435.00
2023-02-19T08:02:24.339Z,436.00
2023-02-19T08:03:24.447Z,435.00
2023-02-19T08:04:24.319Z,434.00
2023-02-19T08:05:24.351Z,433.00
2023-02-19T08:06:24.318Z,431.00
2023-02-19T08:07:24.309Z,430.00
2023-02-19T08:08:24.327Z,430.00
2023-02-19T08:09:24.334Z,428.00
2023-02-19T08:10:24.384Z,427.00
2023-02-19T08:11:24.334Z,426.00
2023-02-19T08:12:24.346Z,426.00
2023-02-19T08:13:24.352Z,426.00
2023-02-19T08:14:24.346Z,426.00
2023-02-19T08:15:24.359Z,428.00
2023-02-19T08:16:40.741Z,428.00
2023-02-19T08:17:25.441Z,431.00
2023-02-19T08:18:24.327Z,430.00
2023-02-19T08:19:24.331Z,431.00
2023-02-19T08:20:24.350Z,434.00
2023-02-19T08:21:24.345Z,433.00
2023-02-19T08:22:24.322Z,431.00
2023-02-19T08:23:24.347Z,430.00
2023-02-19T08:24:24.326Z,431.00
2023-02-19T08:25:24.334Z,432.00
2023-02-19T08:26:24.350Z,432.00
2023-02-19T08:27:24.352Z,431.00
2023-02-19T08:28:24.362Z,430.00
2023-02-19T08:29:24.369Z,430.00
2023-02-19T08:30:24.467Z,432.00
2023-02-19T08:31:24.419Z,431.00
2023-02-19T08:32:24.347Z,431.00
2023-02-19T08:33:24.353Z,430.00
2023-02-19T08:34:24.333Z,428.00
2023-02-19T08:35:24.380Z,426.00
2023-02-19T08:36:24.376Z,426.00
2023-02-19T08:37:24.346Z,426.00
2023-02-19T08:38:24.334Z,427.00
2023-02-19T08:39:24.365Z,425.00
2023-02-19T08:40:24.375Z,424.00
2023-02-19T08:41:24.359Z,425.00
2023-02-19T08:42:24.347Z,425.00
2023-02-19T08:43:24.326Z,427.00
2023-02-19T08:44:24.364Z,428.00
2023-02-19T08:45:24.340Z,428.00
2023-02-19T08:46:24.433Z,428.00
2023-02-19T08:47:24.306Z,427.00
2023-02-19T08:48:24.312Z,427.00
2023-02-19T08:49:24.301Z,427.00
2023-02-19T08:50:24.410Z,428.00
2023-02-19T08:51:24.322Z,426.00
2023-02-19T08:52:24.317Z,426.00
2023-02-19T08:53:24.299Z,429.00
2023-02-19T08:54:24.289Z,434.00
2023-02-19T08:55:24.330Z,437.00
2023-02-19T08:56:24.314Z,439.00
2023-02-19T08:57:24.328Z,438.00
2023-02-19T08:58:24.284Z,434.00
2023-02-19T08:59:24.271Z,433.00
2023-02-19T09:00:24.373Z,433.00
2023-02-19T09:01:24.377Z,433.00
2023-02-19T09:02:24.251Z,429.00
2023-02-19T09:03:24.225Z,428.00
2023-02-19T09:04:24.311Z,426.00
2023-02-19T09:05:24.211Z,426.00
2023-02-19T09:06:24.215Z,429.00
2023-02-19T09:07:24.239Z,429.00
2023-02-19T09:08:24.224Z,430.00
2023-02-19T09:09:24.203Z,428.00
2023-02-19T09:10:24.160Z,430.00
2023-02-19T09:11:24.166Z,429.00
2023-02-19T09:12:24.140Z,429.00
2023-02-19T09:13:24.117Z,429.00
2023-02-19T09:14:24.144Z,432.00
2023-02-19T09:15:24.096Z,435.00
2023-02-19T09:16:24.068Z,433.00
2023-02-19T09:17:24.107Z,433.00
2023-02-19T09:18:24.037Z,436.00
2023-02-19T09:19:24.042Z,436.00
2023-02-19T09:20:24.008Z,435.00
2023-02-19T09:21:24.055Z,435.00
2023-02-19T09:22:24.023Z,431.00
2023-02-19T09:23:23.970Z,432.00
2023-02-19T09:24:23.975Z,431.00
2023-02-19T09:25:23.950Z,431.00
2023-02-19T09:26:23.946Z,430.00
2023-02-19T09:27:23.987Z,429.00
2023-02-19T09:28:23.938Z,426.00
2023-02-19T09:29:23.888Z,425.00
2023-02-19T09:30:23.988Z,424.00
2023-02-19T09:31:23.981Z,426.00
2023-02-19T09:32:23.858Z,427.00
2023-02-19T09:33:23.920Z,430.00
2023-02-19T09:34:23.801Z,430.00
2023-02-19T09:35:23.805Z,431.00
2023-02-19T09:36:23.796Z,431.00
2023-02-19T09:37:23.766Z,432.00
2023-02-19T09:38:23.768Z,434.00
2023-02-19T09:39:23.745Z,433.00
2023-02-19T09:40:23.675Z,434.00
2023-02-19T09:41:23.699Z,430.00
2023-02-19T09:42:23.682Z,430.00
2023-02-19T09:43:23.629Z,431.00
2023-02-19T09:44:23.643Z,430.00
2023-02-19T09:45:23.583Z,432.00
2023-02-19T09:46:23.580Z,435.00
2023-02-19T09:47:23.634Z,434.00
2023-02-19T09:48:23.514Z,433.00
2023-02-19T09:49:25.755Z,433.00
2023-02-19T09:50:23.552Z,433.00
2023-02-19T09:51:23.554Z,431.00
2023-02-19T09:52:23.562Z,432.00
2023-02-19T09:53:23.506Z,432.00
2023-02-19T09:54:23.490Z,433.00
2023-02-19T09:55:23.440Z,431.00
2023-02-19T09:56:23.443Z,431.00
2023-02-19T09:57:23.434Z,429.00
2023-02-19T09:58:23.394Z,428.00
2023-02-19T09:59:23.406Z,427.00
2023-02-19T10:00:23.374Z,430.00
2023-02-19T10:01:23.350Z,431.00
2023-02-19T10:02:23.318Z,432.00
2023-02-19T10:03:23.295Z,433.00
2023-02-19T10:04:23.253Z,432.00
2023-02-19T10:05:23.311Z,431.00
2023-02-19T10:06:23.248Z,428.00
2023-02-19T10:07:23.231Z,427.00
2023-02-19T10:08:23.276Z,425.00
2023-02-19T10:09:23.191Z,426.00
2023-02-19T10:10:23.149Z,428.00
2023-02-19T10:11:23.148Z,425.00
2023-02-19T10:12:23.123Z,425.00
2023-02-19T10:13:23.079Z,426.00
2023-02-19T10:14:23.106Z,427.00
2023-02-19T10:15:23.070Z,426.00
2023-02-19T10:16:23.010Z,427.00
2023-02-19T10:17:23.010Z,431.00
2023-02-19T10:18:22.988Z,433.00
2023-02-19T10:19:22.994Z,434.00
2023-02-19T10:20:22.999Z,432.00
2023-02-19T10:21:22.951Z,430.00
2023-02-19T10:22:22.931Z,431.00
2023-02-19T10:23:22.924Z,431.00
2023-02-19T10:24:22.860Z,430.00
2023-02-19T10:25:22.852Z,430.00
2023-02-19T10:26:22.866Z,430.00
2023-02-19T10:27:22.858Z,430.00
2023-02-19T10:28:22.823Z,429.00
2023-02-19T10:29:22.777Z,430.00
2023-02-19T10:30:22.798Z,429.00
2023-02-19T10:31:22.839Z,429.00
2023-02-19T10:32:22.743Z,430.00
2023-02-19T10:33:22.727Z,428.00
2023-02-19T10:34:22.688Z,427.00
2023-02-19T10:35:22.698Z,427.00
2023-02-19T10:36:22.643Z,427.00
2023-02-19T10:37:22.650Z,425.00
2023-02-19T10:38:22.618Z,426.00
2023-02-19T10:39:22.592Z,426.00
2023-02-19T10:40:22.586Z,424.00
2023-02-19T10:41:22.557Z,425.00
2023-02-19T10:42:22.535Z,427.00
2023-02-19T10:43:22.552Z,428.00
2023-02-19T10:44:22.489Z,429.00
2023-02-19T10:45:22.491Z,429.00
2023-02-19T10:46:22.494Z,430.00
2023-02-19T10:47:22.450Z,431.00
2023-02-19T10:48:22.437Z,432.00
2023-02-19T10:49:22.411Z,433.00
2023-02-19T10:50:22.369Z,432.00
2023-02-19T10:51:22.380Z,432.00
2023-02-19T10:52:22.349Z,431.00
2023-02-19T10:53:22.363Z,430.00
2023-02-19T10:54:22.327Z,431.00
2023-02-19T10:55:22.328Z,430.00
2023-02-19T10:56:22.249Z,428.00
2023-02-19T10:57:22.239Z,428.00
2023-02-19T10:58:22.215Z,427.00
2023-02-19T10:59:22.161Z,431.00
2023-02-19T11:00:22.174Z,430.00
2023-02-19T11:01:22.190Z,430.00
2023-02-19T11:02:22.154Z,429.00
2023-02-19T11:03:22.104Z,425.00
2023-02-19T11:04:22.103Z,427.00
2023-02-19T11:05:22.020Z,430.00
2023-02-19T11:06:22.107Z,431.00
2023-02-19T11:07:21.977Z,431.00
2023-02-19T11:08:21.956Z,430.00
2023-02-19T11:09:21.949Z,430.00
2023-02-19T11:10:21.979Z,428.00
2023-02-19T11:11:21.891Z,426.00
2023-02-19T11:12:21.877Z,426.00
2023-02-19T11:13:21.959Z,426.00
2023-02-19T11:14:21.850Z,428.00
2023-02-19T11:15:21.800Z,429.00
2023-02-19T11:16:21.804Z,427.00
2023-02-19T11:17:21.720Z,426.00
2023-02-19T11:18:21.695Z,428.00
2023-02-19T11:19:21.701Z,429.00
2023-02-19T11:20:21.661Z,429.00
2023-02-19T11:21:21.694Z,429.00
2023-02-19T11:22:21.624Z,429.00
2023-02-19T11:23:21.578Z,428.00
2023-02-19T11:24:21.592Z,428.00
2023-02-19T11:25:21.551Z,429.00
2023-02-19T11:26:21.498Z,426.00
2023-02-19T11:27:21.518Z,424.00
2023-02-19T11:28:21.455Z,425.00
2023-02-19T11:29:21.431Z,427.00
2023-02-19T11:30:21.438Z,427.00
2023-02-19T11:31:21.467Z,427.00
2023-02-19T11:32:21.497Z,427.00
2023-02-19T11:33:21.326Z,427.00
2023-02-19T11:34:21.387Z,425.00
2023-02-19T11:35:21.285Z,426.00
2023-02-19T11:36:21.243Z,427.00
2023-02-19T11:37:21.277Z,427.00
2023-02-19T11:38:21.189Z,428.00
2023-02-19T11:39:21.173Z,427.00
2023-02-19T11:40:21.147Z,426.00
2023-02-19T11:41:21.118Z,427.00
2023-02-19T11:42:21.107Z,425.00
2023-02-19T11:43:21.076Z,423.00
2023-02-19T11:44:21.094Z,424.00
2023-02-19T11:45:21.029Z,423.00
2023-02-19T11:46:21.026Z,424.00
2023-02-19T11:47:21.008Z,424.00
2023-02-19T11:48:20.966Z,423.00
2023-02-19T11:49:20.934Z,423.00
2023-02-19T11:50:20.911Z,423.00
2023-02-19T11:51:20.906Z,422.00
2023-02-19T11:52:20.863Z,421.00
2023-02-19T11:53:20.857Z,422.00
2023-02-19T11:54:20.842Z,424.00
2023-02-19T11:55:20.770Z,424.00
2023-02-19T11:56:20.791Z,426.00
2023-02-19T11:57:20.752Z,428.00
2023-02-19T11:58:20.755Z,427.00
2023-02-19T11:59:20.717Z,425.00
2023-02-19T12:00:20.670Z,426.00
2023-02-19T12:01:20.647Z,427.00
2023-02-19T12:02:20.607Z,426.00
2023-02-19T12:03:20.598Z,426.00
2023-02-19T12:04:20.606Z,429.00
2023-02-19T12:05:20.629Z,428.00
2023-02-19T12:06:20.586Z,428.00
2023-02-19T12:07:22.930Z,432.00
2023-02-19T13:01:22.197Z,426.00
2023-02-19T13:50:18.615Z,420.00
2023-02-19T13:51:18.636Z,421.00
2023-02-19T13:52:18.609Z,422.00
2023-02-19T13:53:18.565Z,422.00
2023-02-19T13:54:18.542Z,423.00
2023-02-19T13:55:18.540Z,424.00
2023-02-19T13:56:18.595Z,424.00
2023-02-19T13:57:18.504Z,423.00
2023-02-19T13:58:18.472Z,425.00
2023-02-19T13:59:18.478Z,425.00
2023-02-19T14:00:18.435Z,424.00
2023-02-19T14:01:18.492Z,425.00
2023-02-19T14:02:18.425Z,425.00
2023-02-19T14:03:18.406Z,424.00
2023-02-19T14:04:18.372Z,424.00
2023-02-19T14:05:18.378Z,425.00
2023-02-19T14:06:18.480Z,422.00
2023-02-19T14:07:18.308Z,420.00
2023-02-19T14:08:18.304Z,419.00
2023-02-19T14:09:18.264Z,420.00